Tiempo atmosférico en la estación meteorológica de Aller, Asturias (750 m.)



Fecha
DESCASC
Temp. máxima en grados centígrados (hora)
DESCASC
Temp. mínima en grados centígrados (hora)
DESCASC
Temp. media en grados centígrados
DESCASC
Racha de viento máxima en m/sg (hora)
DESCASC
Velocidad máxima media en intervalos de 10 minutos(hora)
DESCASC
Precipitaciones diarias en mm
DESCASC
Precipitaciones de 00:00 a 06:00 en mm
DESCASC
Precipitaciones de 06:00 a 12:00 en mm
DESCASC
Precipitaciones de 12:00 a 18:00 en mm
DESCASC
Precipitaciones de 18:00 a 24:00 en mm
DESCASC

Gráficas

Temp. máximas Temp. mínimas Temp. medias Precipitaciones Rachas de viento máximas Velocidades máximas media en intervalos de 10 minutos

Datos horarios

Fecha y hora oficial Temperatura (ºC) Velocidad del viento (km/h) Dirección del viento Racha (km/h) Dirección de racha Precipitación (mm) Presión (hPa) Tendencia (hPa) Humedad (%)
2020-11-26 23:00:00 9 3 Sudeste 9 Sudeste 0 -- -- 84
2020-11-26 22:00:00 9 3 Sudeste 6 Sudeste 0 -- -- 86
2020-11-26 21:00:00 9.2 3 Sudeste 10 Este 0 -- -- 82
2020-11-26 20:00:00 8.6 5 Sudeste 9 Sudeste 0 -- -- 83
2020-11-26 19:00:00 8.4 2 Sudeste 9 Sudeste 0 -- -- 85
2020-11-26 18:00:00 9.7 2 Sudeste 5 Sudeste 0 -- -- 79
2020-11-26 17:00:00 12.1 0 Calma 5 Norte 0 -- -- 74
2020-11-26 16:00:00 12.9 2 Nordeste 9 Noroeste 0 -- -- 69
2020-11-26 15:00:00 13.8 2 Norte 27 Sudeste 0 -- -- 57
2020-11-26 14:00:00 14.4 7 Sudeste 36 Sudeste 0 -- -- 56
2020-11-26 13:00:00 14.7 9 Sudeste 23 Sur 0 -- -- 58
2020-11-26 12:00:00 12.8 7 Sudeste 26 Sudeste 0 -- -- 62
2020-11-26 11:00:00 12 0 Calma 7 Noroeste 0 -- -- 68
2020-11-26 10:00:00 10.7 4 Noroeste 23 Sur 0 -- -- 80
2020-11-26 09:00:00 11.3 9 Este 34 Sudeste 0 -- -- 69
2020-11-26 08:00:00 10.4 10 Sudeste 27 Sur 0 -- -- 75
2020-11-26 07:00:00 8.1 2 Sudeste 7 Sur 0.2 -- -- 97
2020-11-26 06:00:00 8.1 5 Sudoeste 12 Oeste 0 -- -- 98
2020-11-26 05:00:00 8 0 Calma 7 Este 0.8 -- -- 97
2020-11-26 04:00:00 8.2 3 Este 9 Este 0.2 -- -- 96
2020-11-26 03:00:00 8.4 4 Este 12 Nordeste 0 -- -- 92
2020-11-26 02:00:00 7.4 0 Calma 8 Sudeste 0 -- -- 97
2020-11-26 01:00:00 6.7 4 Sudeste 14 Noroeste 0.2 -- -- 97
2020-11-26 00:00:00 6.8 4 Noroeste 13 Norte 0 -- -- 95
2020-11-25 23:00:00 6.3 4 Norte 12 Noroeste 0 -- -- 97
2020-11-25 22:00:00 6.4 2 Noroeste 10 Norte 0 -- -- 97
2020-11-25 21:00:00 6.4 0 Calma 5 Este 0.2 -- -- 97
2020-11-25 20:00:00 6.4 2 Norte 5 Norte 0 -- -- 97
2020-11-25 19:00:00 6.5 0 Calma 8 Sudeste 0 -- -- 95
2020-11-25 18:00:00 7.1 0 Calma 8 Este 0.4 -- -- 92
2020-11-25 17:00:00 8.3 2 Sudeste 8 Este 0.6 -- -- 88
2020-11-25 16:00:00 9.6 3 Este 11 Sudeste 0 -- -- 75
2020-11-25 15:00:00 10.8 5 Sudeste 17 Sur 0 -- -- 67
2020-11-25 14:00:00 11.7 6 Sudeste 24 Sur 0 -- -- 63
2020-11-25 13:00:00 11.3 6 Sudeste 20 Sur 0 -- -- 63
2020-11-25 12:00:00 11.1 6 Este 18 Sudeste 0 -- -- 63
2020-11-25 11:00:00 10.9 5 Sudeste 21 Sudeste 0 -- -- 65
2020-11-25 10:00:00 10 5 Este 19 Sudeste 0 -- -- 68
2020-11-25 09:00:00 9.7 6 Este 27 Sudeste 0 -- -- 66
2020-11-25 08:00:00 9.9 8 Este 31 Este 0 -- -- 65
2020-11-25 07:00:00 10.2 10 Este 25 Este 0 -- -- 64
2020-11-25 06:00:00 10.2 8 Este 20 Sudeste 0 -- -- 67
2020-11-25 05:00:00 10.7 6 Este 24 Este 0 -- -- 66
2020-11-25 04:00:00 10.9 7 Sudeste 23 Este 0 -- -- 64
2020-11-25 03:00:00 10.6 4 Este 23 Este 0 -- -- 67
2020-11-25 02:00:00 8.3 2 Sudoeste 8 Este 0 -- -- 80
2020-11-25 01:00:00 8.9 0 Calma 14 Sudeste 0 -- -- 77
2020-11-25 00:00:00 9.9 5 Este 17 Sudeste 0 -- -- 68
2020-11-24 23:00:00 6.5 4 Este 8 Sudeste 0 -- -- 83
2020-11-24 22:00:00 6.9 2 Norte 27 Este 0 -- -- 76
2020-11-24 21:00:00 7.4 2 Nordeste 14 Sudeste 0 -- -- 74
2020-11-24 20:00:00 9.9 5 Sudeste 23 Sur 0 -- -- 62
2020-11-24 19:00:00 11.2 9 Sudeste 29 Sudeste 0 -- -- 58
2020-11-24 18:00:00 12.4 12 Sudeste 27 Sudeste 0 -- -- 52
2020-11-24 17:00:00 13.5 8 Sudeste 26 Sudeste 0 -- -- 47
2020-11-24 16:00:00 14.4 4 Sudeste 16 Sur 0 -- -- 45
2020-11-24 15:00:00 14.5 4 Sudeste 29 Sudeste 0 -- -- 43
2020-11-24 14:00:00 14.8 8 Sudeste 24 Sudeste 0 -- -- 41
2020-11-24 13:00:00 15.7 8 Sudeste 28 Sudeste 0 -- -- 40
2020-11-24 12:00:00 15.3 10 Sur 24 Sudeste 0 -- -- 38
2020-11-24 11:00:00 11.4 5 Sudeste 14 Sudeste 0 -- -- 50
2020-11-24 10:00:00 4.7 0 Calma 4 Sudeste 0 -- -- 84
2020-11-24 09:00:00 3.7 0 Calma 8 Sudeste 0 -- -- 83
2020-11-24 08:00:00 4 5 Sudeste 11 Sudeste 0 -- -- 79
2020-11-24 07:00:00 4.3 2 Sur 11 Sudeste 0 -- -- 79
2020-11-24 06:00:00 4.4 0 Calma 10 Sudeste 0 -- -- 78
2020-11-24 05:00:00 5.6 2 Sudeste 10 Sudeste 0 -- -- 74
2020-11-24 04:00:00 6.6 0 Calma 13 Sudoeste 0 -- -- 72
2020-11-24 03:00:00 6.8 0 Calma 15 Sur 0 -- -- 76
2020-11-24 02:00:00 6.3 0 Calma 8 Noroeste 0 -- -- 76
2020-11-24 01:00:00 5.9 4 Este 10 Este 0 -- -- 81
2020-11-24 00:00:00 4.7 4 Sudeste 10 Sudeste 0 -- -- 87
2020-11-23 23:00:00 4.8 2 Sudeste 9 Sur 0 -- -- 89
2020-11-23 22:00:00 5.2 2 Sudeste 10 Sudeste 0 -- -- 87
2020-11-23 21:00:00 5.6 3 Sudeste 10 Sudeste 0 -- -- 85
2020-11-23 20:00:00 6.5 8 Sudeste 13 Sudeste 0 -- -- 78
2020-11-23 19:00:00 7 8 Sudeste 14 Sudeste 0 -- -- 77
2020-11-23 18:00:00 8.2 8 Sudeste 12 Sudeste 0 -- -- 74
2020-11-23 17:00:00 9.7 8 Sudeste 12 Sudeste 0 -- -- 72
2020-11-23 16:00:00 10.7 8 Sudeste 12 Sudeste 0 -- -- 69
2020-11-23 15:00:00 11.1 8 Sudeste 11 Sur 0 -- -- 63
2020-11-23 14:00:00 12 7 Sudeste 11 Sudeste 0 -- -- 56
2020-11-23 13:00:00 13.9 5 Sudeste 12 Sudeste 0 -- -- 49
2020-11-23 12:00:00 12.7 5 Sudeste 13 Sudeste 0 -- -- 55
2020-11-23 11:00:00 8.5 6 Sudeste 16 Sudeste 0 -- -- 70
2020-11-23 10:00:00 3.9 6 Sudeste 12 Sudeste 0 -- -- 84
2020-11-23 09:00:00 3.1 5 Sudeste 11 Sudeste 0 -- -- 87
2020-11-23 08:00:00 2.9 6 Sudeste 10 Sudeste 0 -- -- 88
2020-11-23 07:00:00 3 3 Sudeste 12 Sudeste 0 -- -- 89
2020-11-23 06:00:00 3.1 2 Sudeste 11 Sudeste 0 -- -- 91
2020-11-23 05:00:00 3.4 8 Sudeste 13 Sudeste 0 -- -- 91
2020-11-23 04:00:00 3.7 2 Sudeste 13 Sudeste 0 -- -- 92
2020-11-23 03:00:00 3.9 7 Sudeste 12 Sudeste 0 -- -- 92
2020-11-23 02:00:00 4 4 Sudeste 13 Sudeste 0 -- -- 93
2020-11-23 01:00:00 4.4 7 Sudeste 11 Sur 0 -- -- 93
2020-11-23 00:00:00 4.6 6 Sudeste 10 Sudeste 0 -- -- 94
2020-11-22 23:00:00 4.9 5 Sudeste 10 Sudeste 0 -- -- 92
2020-11-22 22:00:00 5 7 Sudeste 10 Sudeste 0 -- -- 92
2020-11-22 21:00:00 5.7 5 Sudeste 11 Sudeste 0 -- -- 90
2020-11-22 20:00:00 6.4 7 Sudeste 10 Sudeste 0 -- -- 88
2020-11-22 19:00:00 7.3 8 Sudeste 12 Sudeste 0 -- -- 84
2020-11-22 18:00:00 8.1 8 Sudeste 12 Sudeste 0 -- -- 82
2020-11-22 17:00:00 8.7 7 Sudeste 13 Sudeste 0 -- -- 79
2020-11-22 16:00:00 9.3 8 Sudeste 11 Sudeste 0 -- -- 76
2020-11-22 15:00:00 10.7 6 Sudeste 12 Sudeste 0 -- -- 70
2020-11-22 14:00:00 12.3 8 Sudeste 10 Sudeste 0 -- -- 62
2020-11-22 13:00:00 14.8 5 Sudeste 12 Sudeste 0 -- -- 56
2020-11-22 12:00:00 13.4 7 Sudeste 13 Sudeste 0 -- -- 63
2020-11-22 11:00:00 10.5 8 Sudeste 12 Sudeste 0 -- -- 70
2020-11-22 10:00:00 5.9 3 Sudeste 11 Sur 0 -- -- 87
2020-11-22 09:00:00 5 5 Sudeste 12 Sudeste 0 -- -- 87
2020-11-22 08:00:00 5.4 4 Sudeste 10 Sudeste 0 -- -- 85
2020-11-22 07:00:00 5.3 5 Sudeste 12 Sudeste 0 -- -- 82
2020-11-22 06:00:00 5.3 6 Sudeste 12 Sudeste 0 -- -- 80
2020-11-22 05:00:00 5 8 Sudeste 13 Sudeste 0 -- -- 77
2020-11-22 04:00:00 5 9 Sudeste 13 Sudeste 0 -- -- 78
2020-11-22 03:00:00 5 8 Sudeste 12 Sudeste 0 -- -- 79
2020-11-22 02:00:00 4.5 2 Sudeste 9 Sudeste 0 -- -- 89
2020-11-22 01:00:00 4.7 3 Sudeste 8 Sur 0 -- -- 88
2020-11-22 00:00:00 4.6 3 Sudeste 8 Sudeste 0 -- -- 93
2020-11-21 23:00:00 4.4 4 Sudeste 8 Sudeste 0 -- -- 92
2020-11-21 22:00:00 4.9 0 Calma 9 Sudeste 0 -- -- 90
2020-11-21 21:00:00 6.1 8 Sudeste 14 Sudeste 0 -- -- 84
2020-11-21 20:00:00 5.6 3 Sudeste 10 Sudeste 0 -- -- 90
2020-11-21 19:00:00 6.3 5 Sudeste 10 Sudeste 0 -- -- 87
2020-11-21 18:00:00 7.8 5 Sudeste 13 Sudeste 0 -- -- 85
2020-11-21 17:00:00 9 7 Sudeste 12 Sudeste 0 -- -- 80
2020-11-21 16:00:00 9.7 5 Sudeste 10 Sudeste 0 -- -- 77
2020-11-21 15:00:00 10.5 7 Sudeste 11 Sudeste 0 -- -- 73
2020-11-21 14:00:00 12.3 0 Calma 8 Sur 0 -- -- 67
2020-11-21 13:00:00 15.1 3 Sur 9 Sur 0 -- -- 55
2020-11-21 12:00:00 13.7 6 Sudeste 14 Sudeste 0 -- -- 63
2020-11-21 11:00:00 9.8 6 Sudeste 12 Sudeste 0 -- -- 78
2020-11-21 10:00:00 4.8 8 Sudeste 12 Sudeste 0 -- -- 95
2020-11-21 09:00:00 4 2 Sudeste 11 Sudeste 0 -- -- 94
2020-11-21 08:00:00 3.5 4 Sudeste 11 Sudeste 0 -- -- 96
2020-11-21 07:00:00 3.8 5 Sudeste 11 Sudeste 0 -- -- 94
2020-11-21 06:00:00 3.6 3 Sudeste 12 Sudeste 0 -- -- 94
2020-11-21 05:00:00 3.2 5 Sudeste 9 Sudeste 0 -- -- 96
2020-11-21 04:00:00 3.6 4 Sudeste 11 Sudeste 0 -- -- 93
2020-11-21 03:00:00 3.3 8 Sudeste 11 Sudeste 0 -- -- 95
2020-11-21 02:00:00 3.7 8 Sudeste 12 Sudeste 0 -- -- 93
2020-11-21 01:00:00 3.4 8 Sudeste 11 Sudeste 0 -- -- 95
2020-11-21 00:00:00 3.7 0 Calma 11 Sudeste 0 -- -- 93
2020-11-20 23:00:00 4 5 Sudeste 9 Sudeste 0 -- -- 91
2020-11-20 22:00:00 4.3 6 Sudeste 10 Sudeste 0 -- -- 91
2020-11-20 21:00:00 4.5 5 Sudeste 10 Sudeste 0 -- -- 91
2020-11-20 20:00:00 4.5 5 Sudeste 11 Sudeste 0 -- -- 90
2020-11-20 19:00:00 5.4 6 Sudeste 10 Sudeste 0 -- -- 85
2020-11-20 18:00:00 6.3 5 Sudeste 9 Sudeste 0 -- -- 85
2020-11-20 17:00:00 6.9 6 Sudeste 12 Sudeste 0 -- -- 82
2020-11-20 16:00:00 7.2 4 Sudeste 10 Sudeste 0 -- -- 73
2020-11-20 15:00:00 7.6 4 Sur 13 Sur 0 -- -- 69
2020-11-20 14:00:00 8.4 5 Sudeste 11 Sudeste 0 -- -- 71
2020-11-20 13:00:00 10.2 4 Sur 10 Sudeste 0 -- -- 67
2020-11-20 12:00:00 8.8 6 Sudeste 10 Sudeste 0 -- -- 68
2020-11-20 11:00:00 6.7 5 Sudeste 10 Sur 0 -- -- 78
2020-11-20 10:00:00 3.8 3 Sudeste 10 Sudeste 0 -- -- 91
2020-11-20 09:00:00 4.5 5 Sudeste 11 Sudeste 0 -- -- 86
2020-11-20 08:00:00 5.2 4 Sudeste 7 Sur 0 -- -- 87
2020-11-20 07:00:00 5 4 Sudeste 10 Sudeste 0 -- -- 88
2020-11-20 06:00:00 5.2 5 Sudeste 12 Sur 0.2 -- -- 83
2020-11-20 05:00:00 5.9 5 Sudeste 12 Sudeste 0 -- -- 84
2020-11-20 04:00:00 6.1 5 Este 10 Sudeste 0 -- -- 88
2020-11-20 03:00:00 6.4 4 Sudeste 12 Sur 0 -- -- 90
2020-11-20 02:00:00 7.5 3 Sudeste 9 Sur 0 -- -- 93
2020-11-20 01:00:00 7.9 0 Calma 3 Sudeste 0 -- -- 99
2020-11-20 00:00:00 8.1 3 Norte 5 Norte 0 -- -- 100
2020-11-19 23:00:00 8.3 0 Calma 8 Norte 0 -- -- 100
2020-11-19 22:00:00 8.4 5 Norte 8 Norte 0 -- -- 100
2020-11-19 21:00:00 8.5 2 Norte 9 Norte 0.4 -- -- 100
2020-11-19 20:00:00 8.8 5 Norte 8 Noroeste 0 -- -- 100
2020-11-19 19:00:00 9 2 Norte 7 Norte 0 -- -- 99
2020-11-19 18:00:00 9.3 3 Norte 10 Norte 0.4 -- -- 99
2020-11-19 17:00:00 9.6 6 Norte 12 Norte 0.2 -- -- 98
2020-11-19 16:00:00 10.1 4 Norte 14 Norte 0 -- -- 97
2020-11-19 15:00:00 10.9 8 Norte 22 Norte 0 -- -- 93
2020-11-19 14:00:00 12.6 9 Noroeste 13 Noroeste 0 -- -- 88
2020-11-19 13:00:00 11.8 3 Noroeste 5 Noroeste 0 -- -- 90
2020-11-19 12:00:00 10.3 2 Norte 13 Noroeste 0 -- -- 98
2020-11-19 11:00:00 10.1 7 Norte 12 Norte 0.2 -- -- 99
2020-11-19 10:00:00 9.8 3 Noroeste 10 Noroeste 0 -- -- 99
2020-11-19 09:00:00 10 5 Norte 14 Norte 0 -- -- 100
2020-11-19 08:00:00 9.9 3 Noroeste 10 Norte 0.2 -- -- 99
2020-11-19 07:00:00 9.9 2 Sur 5 Sudeste 0 -- -- 98
2020-11-19 06:00:00 9.7 0 Calma 4 Sudeste 0 -- -- 97
2020-11-19 05:00:00 9.7 0 Calma 5 Este 0 -- -- 94
2020-11-19 04:00:00 9.5 4 Sudeste 12 Sudeste 0 -- -- 93
2020-11-19 03:00:00 7.8 0 Calma 8 Noroeste 0 -- -- 97
2020-11-19 02:00:00 7.8 3 Sudeste 9 Sudeste 0 -- -- 94
2020-11-19 01:00:00 8.2 6 Sudeste 11 Sudeste 0 -- -- 94
2020-11-19 00:00:00 8.6 6 Sudeste 10 Sudeste 0 -- -- 92
2020-11-18 23:00:00 9 6 Sudeste 11 Sudeste 0 -- -- 90
2020-11-18 22:00:00 9.1 7 Sudeste 14 Sudeste 0 -- -- 87
2020-11-18 21:00:00 9.2 7 Sudeste 12 Sudeste 0 -- -- 88
2020-11-18 20:00:00 10.2 6 Sudeste 12 Sudeste 0 -- -- 84
2020-11-18 19:00:00 10.9 7 Sudeste 12 Sudeste 0 -- -- 83
2020-11-18 18:00:00 12 8 Sudeste 11 Sudeste 0 -- -- 79
2020-11-18 17:00:00 12.9 5 Sudeste 9 Sur 0 -- -- 75
2020-11-18 16:00:00 14.4 0 Calma 16 Este 0 -- -- 68
2020-11-18 15:00:00 15.7 5 Sudeste 19 Noroeste 0 -- -- 61
2020-11-18 14:00:00 19.8 3 Sudoeste 16 Norte 0 -- -- 43
2020-11-18 13:00:00 21.6 3 Oeste 32 Noroeste 0 -- -- 39
2020-11-18 12:00:00 19.2 3 Sudeste 10 Sudeste 0 -- -- 54
2020-11-18 11:00:00 15.6 2 Este 14 Sudeste 0 -- -- 64
2020-11-18 10:00:00 10.4 8 Sudeste 15 Este 0 -- -- 78
2020-11-18 09:00:00 9.6 6 Sudeste 12 Sudeste 0 -- -- 80
2020-11-18 08:00:00 9.7 8 Sudeste 14 Sudeste 0 -- -- 80
2020-11-18 07:00:00 9.4 2 Nordeste 9 Este 0 -- -- 87
2020-11-18 06:00:00 9.8 2 Este 8 Sur 0 -- -- 88
2020-11-18 05:00:00 9.8 4 Sudeste 12 Sudeste 0 -- -- 86
2020-11-18 04:00:00 11.4 2 Este 13 Este 0 -- -- 77
2020-11-18 03:00:00 11.4 6 Sudeste 12 Este 0 -- -- 72
2020-11-18 02:00:00 11.7 4 Sudeste 22 Sudeste 0 -- -- 68
2020-11-18 01:00:00 15.5 8 Sudeste 25 Sudoeste 0 -- -- 51
2020-11-18 00:00:00 12.2 4 Noroeste 22 Sudeste 0 -- -- 64
2020-11-17 23:00:00 14.7 7 Sudeste 23 Sur 0 -- -- 53
2020-11-17 22:00:00 15.9 11 Sur 31 Sur 0 -- -- 49
2020-11-17 21:00:00 12.4 8 Sudeste 19 Sur 0 -- -- 61
2020-11-17 20:00:00 9.7 0 Calma 14 Sudeste 0 -- -- 77
2020-11-17 19:00:00 10.5 7 Sudeste 13 Sudeste 0 -- -- 74
2020-11-17 18:00:00 11.6 3 Sudeste 9 Sudeste 0 -- -- 74
2020-11-17 17:00:00 13.7 3 Sudeste 8 Este 0 -- -- 65
2020-11-17 16:00:00 16.1 4 Sudeste 14 Este 0 -- -- 57
2020-11-17 15:00:00 16 3 Sudeste 15 Sudoeste 0 -- -- 57
2020-11-17 14:00:00 19.3 7 Sur 15 Sur 0 -- -- 41
2020-11-17 13:00:00 19.6 4 Sur 15 Sudeste 0 -- -- 45
2020-11-17 12:00:00 17.1 7 Sudeste 15 Sudeste 0 -- -- 56
2020-11-17 11:00:00 13.1 5 Sudeste 12 Sudeste 0 -- -- 70
2020-11-17 10:00:00 7 4 Sur 12 Sudeste 0 -- -- 92
2020-11-17 09:00:00 5.8 8 Sudeste 12 Sudeste 0 -- -- 94
2020-11-17 08:00:00 6.2 5 Sudeste 13 Sudeste 0 -- -- 91
2020-11-17 07:00:00 6.1 5 Sudeste 12 Sur 0 -- -- 92
2020-11-17 06:00:00 5.7 4 Sudeste 12 Sudeste 0 -- -- 95
2020-11-17 05:00:00 6.3 8 Sudeste 13 Sudeste 0 -- -- 94
2020-11-17 04:00:00 5.4 3 Sudeste 14 Sudeste 0 -- -- 97
2020-11-17 03:00:00 5 0 Calma 5 Sur 0 -- -- 100
2020-11-17 02:00:00 4.9 3 Sudeste 8 Sudeste 0 -- -- 98
2020-11-17 01:00:00 5.1 7 Sudeste 10 Sudeste 0 -- -- 98
2020-11-17 00:00:00 4.9 4 Sudeste 10 Sudeste 0 -- -- 97
2020-11-16 23:00:00 5 3 Sudeste 9 Sudeste 0 -- -- 97
2020-11-16 22:00:00 5.2 7 Sudeste 10 Sudeste 0 -- -- 97
2020-11-16 21:00:00 5.7 4 Sudeste 11 Sudeste 0 -- -- 94
2020-11-16 20:00:00 6.3 5 Sudeste 10 Sudeste 0 -- -- 93
2020-11-16 19:00:00 6.9 6 Sudeste 9 Sudeste 0 -- -- 92
2020-11-16 18:00:00 8 5 Sudeste 10 Sudeste 0 -- -- 90
2020-11-16 17:00:00 9.1 5 Sudeste 8 Sur 0 -- -- 87
2020-11-16 16:00:00 10.7 5 Sudeste 9 Sudeste 0 -- -- 81
2020-11-16 15:00:00 11 4 Sudeste 9 Sudeste 0 -- -- 81
2020-11-16 14:00:00 11.8 6 Sudeste 11 Sur 0 -- -- 70
2020-11-16 13:00:00 12.4 4 Sur 9 Sudeste 0 -- -- 69
2020-11-16 12:00:00 11 6 Sudeste 12 Sudeste 0 -- -- 76
2020-11-16 11:00:00 9.7 3 Sudeste 12 Sudeste 0 -- -- 86
2020-11-16 10:00:00 6.8 5 Sudeste 12 Sudeste 0 -- -- 96
2020-11-16 09:00:00 6.3 2 Sudeste 5 Este 0 -- -- 97
2020-11-16 08:00:00 7.6 4 Sudeste 6 Sudeste 0.2 -- -- 99
2020-11-16 07:00:00 7.7 0 Calma 3 Noroeste 0 -- -- 99
2020-11-16 06:00:00 7.7 0 Calma 4 Norte 0.2 -- -- 99
2020-11-16 05:00:00 7.7 3 Norte 11 Norte 0.2 -- -- 99
2020-11-16 04:00:00 8.2 6 Norte 12 Norte 0 -- -- 99
2020-11-16 03:00:00 8.4 7 Norte 10 Noroeste 0 -- -- 99
2020-11-16 02:00:00 8.7 3 Norte 7 Norte 0 -- -- 99
2020-11-16 01:00:00 8.8 3 Noroeste 5 Norte 0.2 -- -- 99
2020-11-16 00:00:00 9 3 Noroeste 6 Norte 0 -- -- 99
2020-11-15 23:00:00 9.1 3 Norte 7 Norte 0 -- -- 98
2020-11-15 22:00:00 9.3 5 Norte 16 Norte 0.2 -- -- 98
2020-11-15 21:00:00 9.7 5 Norte 15 Norte 0 -- -- 97
2020-11-15 20:00:00 10.5 7 Norte 16 Noroeste 0.6 -- -- 96
2020-11-15 19:00:00 11.6 5 Norte 13 Noroeste 1 -- -- 98
2020-11-15 18:00:00 12 7 Norte 14 Norte 0.8 -- -- 97
2020-11-15 17:00:00 12.9 3 Norte 21 Noroeste 0 -- -- 94
2020-11-15 16:00:00 14.5 13 Norte 29 Norte 0 -- -- 83
2020-11-15 15:00:00 18.7 7 Norte 28 Noroeste 0 -- -- 57
2020-11-15 14:00:00 18.7 3 Sudeste 21 Nordeste 0 -- -- 61
2020-11-15 13:00:00 18.1 7 Norte 22 Noroeste 0 -- -- 61
2020-11-15 12:00:00 18.2 4 Norte 23 Sur 0 -- -- 59
2020-11-15 11:00:00 17.3 4 Sudeste 18 Noroeste 0 -- -- 65
2020-11-15 10:00:00 16.6 6 Nordeste 26 Este 0 -- -- 65
2020-11-15 09:00:00 16.6 6 Nordeste 27 Norte 0 -- -- 62
2020-11-15 08:00:00 15.8 11 Norte 31 Noroeste 0 -- -- 65
2020-11-15 07:00:00 16 11 Norte 31 Norte 0 -- -- 63
2020-11-15 06:00:00 16 4 Nordeste 32 Este 0 -- -- 64
2020-11-15 05:00:00 16.2 8 Este 24 Este 0 -- -- 62
2020-11-15 04:00:00 16.5 9 Este 31 Este 0 -- -- 60
2020-11-15 03:00:00 16.4 12 Este 35 Norte 0 -- -- 62
2020-11-15 02:00:00 15.4 4 Oeste 26 Sudeste 0 -- -- 67
2020-11-15 01:00:00 14.2 6 Sudeste 15 Sur 0 -- -- 71
2020-11-15 00:00:00 14.2 4 Sudeste 16 Sudeste 0 -- -- 70
2020-11-14 23:00:00 14.3 3 Sur 28 Sudeste 0 -- -- 66
2020-11-14 22:00:00 14.2 8 Este 26 Nordeste 0 -- -- 63
2020-11-14 21:00:00 12 5 Este 15 Este 0 -- -- 76
2020-11-14 20:00:00 13.8 7 Este 27 Este 0 -- -- 68
2020-11-14 19:00:00 13.5 5 Sudeste 19 Nordeste 0 -- -- 69
2020-11-14 18:00:00 13.4 7 Este 20 Este 0 -- -- 67
2020-11-14 17:00:00 14.6 10 Sudeste 33 Sudeste 0 -- -- 62
2020-11-14 16:00:00 14.8 13 Sudeste 38 Sur 0 -- -- 63
2020-11-14 15:00:00 14.9 12 Sudeste 37 Sudeste 0 -- -- 63
2020-11-14 14:00:00 16 12 Sudeste 37 Sudoeste 0 -- -- 58
2020-11-14 13:00:00 16.9 12 Sudeste 49 Sudeste 0 -- -- 51
2020-11-14 12:00:00 16.4 15 Sudeste 50 Este 0 -- -- 55
2020-11-14 11:00:00 15.7 13 Sudeste 49 Sudeste 0 -- -- 53
2020-11-14 10:00:00 13.4 13 Sudeste 43 Sudeste 0 -- -- 59
2020-11-14 09:00:00 12.7 12 Sudeste 35 Sudeste 0 -- -- 62
2020-11-14 08:00:00 12.5 6 Sudeste 34 Sudeste 0 -- -- 60
2020-11-14 07:00:00 12.8 13 Sudeste 36 Sudeste 0 -- -- 56
2020-11-14 06:00:00 12.9 10 Este 36 Sudeste 0 -- -- 53
2020-11-14 05:00:00 12.6 7 Sudeste 25 Sudeste 0 -- -- 59
2020-11-14 04:00:00 12.5 10 Este 26 Este 0 -- -- 60
2020-11-14 03:00:00 11.8 6 Este 31 Este 0 -- -- 61
2020-11-14 02:00:00 11.6 6 Este 22 Sur 0 -- -- 62
2020-11-14 01:00:00 12 3 Este 20 Sudeste 0 -- -- 61
2020-11-14 00:00:00 12.5 6 Este 41 Sudeste 0 -- -- 57
2020-11-13 23:00:00 12.9 14 Sudeste 35 Sudeste 0 -- -- 50
2020-11-13 22:00:00 12.5 16 Sudeste 37 Sudeste 0 -- -- 55
2020-11-13 21:00:00 11.4 6 Sudeste 23 Sudeste 0 -- -- 60
2020-11-13 20:00:00 10.5 2 Norte 19 Sudeste 0 -- -- 69
2020-11-13 19:00:00 13.9 7 Sudeste 26 Sudeste 0 -- -- 54
2020-11-13 18:00:00 13.7 5 Sudeste 24 Sudeste 0 -- -- 59
2020-11-13 17:00:00 13.4 6 Sudeste 18 Sudeste 0 -- -- 56
2020-11-13 16:00:00 11 2 Sudeste 8 Sudeste 0 -- -- 70
2020-11-13 15:00:00 12.6 4 Sudeste 10 Sudeste 0 -- -- 60
2020-11-13 14:00:00 16.9 3 Noroeste 14 Noroeste 0 -- -- 43
2020-11-13 13:00:00 18.2 2 Oeste 11 Noroeste 0 -- -- 43
2020-11-13 12:00:00 16.1 4 Noroeste 9 Sudeste 0 -- -- 43
2020-11-13 11:00:00 12.5 5 Sudeste 10 Sudeste 0 -- -- 59
2020-11-13 10:00:00 7.9 2 Nordeste 10 Sudeste 0 -- -- 71
2020-11-13 09:00:00 8.8 2 Sudoeste 15 Sudeste 0 -- -- 70
2020-11-13 08:00:00 6.8 5 Sudeste 8 Sudeste 0 -- -- 78
2020-11-13 07:00:00 7.2 0 Calma 9 Sudeste 0 -- -- 79
2020-11-13 06:00:00 7.1 0 Calma 8 Sur 0 -- -- 81
2020-11-13 05:00:00 8.1 0 Calma 7 Norte 0 -- -- 72
2020-11-13 04:00:00 8.4 3 Sudoeste 10 Sudeste 0 -- -- 71
2020-11-13 03:00:00 10.2 4 Sudeste 13 Sudeste 0 -- -- 60
2020-11-13 02:00:00 10.6 6 Sudeste 14 Sudeste 0 -- -- 45
2020-11-13 01:00:00 8.2 2 Sur 10 Este 0 -- -- 73
2020-11-13 00:00:00 9.1 4 Sudeste 13 Sudeste 0 -- -- 72
2020-11-12 23:00:00 8.7 2 Sudeste 10 Sudeste 0 -- -- 68
2020-11-12 22:00:00 8.4 3 Sur 10 Sudeste 0 -- -- 81
2020-11-12 21:00:00 8.8 3 Sudeste 7 Sudeste 0 -- -- 85
2020-11-12 20:00:00 9.8 3 Sudeste 6 Sur 0 -- -- 85
2020-11-12 19:00:00 12.5 0 Calma 16 Sur 0 -- -- 74
2020-11-12 18:00:00 14.9 6 Sudeste 21 Sudeste 0 -- -- 65
2020-11-12 17:00:00 13.4 6 Sudeste 12 Sudeste 0 -- -- 71
2020-11-12 16:00:00 13.5 5 Sudeste 9 Sudeste 0 -- -- 74
2020-11-12 15:00:00 14.3 5 Sudeste 10 Sudeste 0 -- -- 72
2020-11-12 14:00:00 17.3 4 Sur 8 Sur 0 -- -- 60
2020-11-12 13:00:00 19.7 3 Sur 17 Sur 0 -- -- 51
2020-11-12 12:00:00 18.8 6 Sur 18 Sudeste 0 -- -- 54
2020-11-12 11:00:00 15.5 5 Sudeste 12 Sudeste 0 -- -- 67
2020-11-12 10:00:00 11.2 6 Este 11 Este 0 -- -- 81
2020-11-12 09:00:00 11.2 5 Sudeste 9 Sudeste 0 -- -- 81
2020-11-12 08:00:00 10.3 0 Calma 9 Este 0 -- -- 86
2020-11-12 07:00:00 10.9 4 Sudeste 12 Norte 0 -- -- 83
2020-11-12 06:00:00 12 4 Nordeste 13 Sur 0 -- -- 76
2020-11-12 05:00:00 12.9 6 Sudeste 16 Sudeste 0 -- -- 68
2020-11-12 04:00:00 12.6 6 Sudeste 19 Sudeste 0 -- -- 69
2020-11-12 03:00:00 12.6 7 Sudeste 28 Sudeste 0 -- -- 71
2020-11-12 02:00:00 12.9 7 Sudeste 25 Sur 0 -- -- 70
2020-11-12 01:00:00 11.7 8 Sudeste 17 Sudeste 0 -- -- 77
2020-11-12 00:00:00 11.4 6 Sudeste 18 Sudeste 0 -- -- 82
2020-11-11 23:00:00 12.3 7 Sudeste 23 Sur 0 -- -- 69
2020-11-11 22:00:00 13.2 10 Sudeste 23 Sudeste 0 -- -- 59
2020-11-11 21:00:00 13.5 10 Sudeste 23 Sur 0 -- -- 55
2020-11-11 20:00:00 11.1 3 Este 8 Este 0 -- -- 71
2020-11-11 19:00:00 11.5 0 Calma 18 Sur 0 -- -- 65
2020-11-11 18:00:00 12.4 0 Calma 19 Sudeste 0 -- -- 63
2020-11-11 17:00:00 14.2 8 Sur 22 Sur 0 -- -- 44
2020-11-11 16:00:00 14.6 4 Sur 24 Sur 0 -- -- 43
2020-11-11 15:00:00 14.9 8 Sudeste 26 Sur 0 -- -- 42
2020-11-11 14:00:00 15.4 5 Sur 32 Sudeste 0 -- -- 42
2020-11-11 13:00:00 16.1 6 Sur 26 Sur 0 -- -- 46
2020-11-11 12:00:00 14.2 6 Noroeste 13 Oeste 0 -- -- 55
2020-11-11 11:00:00 9.4 2 Sudeste 6 Sudeste 0 -- -- 77
2020-11-11 10:00:00 8.9 0 Calma 18 Sudoeste 0 -- -- 79
2020-11-11 09:00:00 11 10 Sudeste 25 Sur 0 -- -- 58
2020-11-11 08:00:00 6.2 2 Sudeste 12 Sudeste 0 -- -- 86
2020-11-11 07:00:00 5.7 3 Este 8 Sudeste 0 -- -- 90
2020-11-11 06:00:00 5.5 2 Sudeste 10 Sudeste 0 -- -- 90
2020-11-11 05:00:00 5.5 2 Sur 9 Sudeste 0 -- -- 90
2020-11-11 04:00:00 6.5 0 Calma 13 Sudeste 0 -- -- 85
2020-11-11 03:00:00 5.8 2 Sur 12 Sudeste 0 -- -- 88
2020-11-11 02:00:00 5.6 0 Calma 10 Sudeste 0 -- -- 88
2020-11-11 01:00:00 6.5 0 Calma 9 Sudeste 0 -- -- 84
2020-11-11 00:00:00 8.1 0 Calma 14 Nordeste 0 -- -- 79
2020-11-10 23:00:00 9.1 8 Este 16 Este 0 -- -- 68
2020-11-10 22:00:00 9.4 6 Este 18 Sur 0 -- -- 68
2020-11-10 21:00:00 8.3 8 Este 14 Este 0 -- -- 73
2020-11-10 20:00:00 6.8 2 Sur 9 Sudeste 0 -- -- 86
2020-11-10 19:00:00 6.8 5 Sudeste 9 Sudeste 0 -- -- 88
2020-11-10 18:00:00 8.2 4 Sudeste 10 Sudeste 0 -- -- 88
2020-11-10 17:00:00 9.7 5 Sudeste 9 Sudeste 0 -- -- 85
2020-11-10 16:00:00 11.7 0 Calma 4 Sur 0 -- -- 82
2020-11-10 15:00:00 12.5 0 Calma 5 Oeste 0 -- -- 81
2020-11-10 14:00:00 13.2 3 Sur 9 Sudeste 0 -- -- 68
2020-11-10 13:00:00 13.3 4 Sur 11 Sur 0 -- -- 64
2020-11-10 12:00:00 12 5 Sudeste 12 Sudeste 0 -- -- 71
2020-11-10 11:00:00 9.2 5 Sudeste 10 Sudeste 0 -- -- 83
2020-11-10 10:00:00 4.4 4 Sudeste 8 Sudeste 0 -- -- 99
2020-11-10 09:00:00 3.8 2 Sur 7 Sudeste 0.2 -- -- 98
2020-11-10 08:00:00 4.5 5 Sudeste 9 Sudeste 0 -- -- 97
2020-11-10 07:00:00 6.2 0 Calma 10 Sudeste 0 -- -- 93
2020-11-10 06:00:00 7.5 3 Sudeste 8 Sudeste 0 -- -- 94
2020-11-10 05:00:00 7.5 3 Sudeste 7 Sudeste 0 -- -- 98
2020-11-10 04:00:00 6.9 4 Sudeste 10 Sudeste 0 -- -- 98
2020-11-10 03:00:00 6 7 Sudeste 10 Sudeste 0 -- -- 99
2020-11-10 02:00:00 6.3 4 Sudeste 9 Sudeste 0 -- -- 98
2020-11-10 01:00:00 7.6 4 Sudeste 7 Sudeste 0 -- -- 98
2020-11-10 00:00:00 9 0 Calma 6 Sudeste 0 -- -- 99
2020-11-09 23:00:00 9.3 2 Sudeste 5 Sudeste 0 -- -- 99
2020-11-09 22:00:00 9.5 0 Calma 3 Este 0 -- -- 99
2020-11-09 21:00:00 9.7 0 Calma 4 Noroeste 0.4 -- -- 98
2020-11-09 20:00:00 10 0 Calma 14 Norte 1.2 -- -- 96
2020-11-09 19:00:00 9.8 4 Sudeste 10 Sudeste 0 -- -- 92
2020-11-09 18:00:00 10.4 0 Calma 12 Sudeste 0 -- -- 90
2020-11-09 17:00:00 11 3 Sudeste 5 Sudeste 0 -- -- 89
2020-11-09 16:00:00 13 3 Sudeste 24 Noroeste 0.2 -- -- 81
2020-11-09 15:00:00 14.8 4 Noroeste 18 Este 0 -- -- 63
2020-11-09 14:00:00 15.7 6 Sudeste 26 Sur 0 -- -- 56
2020-11-09 13:00:00 16.5 6 Sudeste 20 Este 0 -- -- 55
2020-11-09 12:00:00 14.6 5 Sudeste 22 Este 0 -- -- 59
2020-11-09 11:00:00 13.8 6 Sur 17 Sudeste 0 -- -- 62
2020-11-09 10:00:00 10.7 4 Este 10 Sur 0 -- -- 76
2020-11-09 09:00:00 8.6 4 Sudeste 8 Sudeste 0 -- -- 85
2020-11-09 08:00:00 8.2 4 Sudeste 8 Sudeste 0 -- -- 89
2020-11-09 07:00:00 9.5 4 Sudeste 9 Sudeste 0 -- -- 82
2020-11-09 06:00:00 11.1 5 Sudeste 17 Sudeste 0 -- -- 72
2020-11-09 05:00:00 9.5 6 Sudeste 12 Sudeste 0 -- -- 86
2020-11-09 04:00:00 9.1 2 Sudeste 11 Sudoeste 0 -- -- 89
2020-11-09 03:00:00 9.1 0 Calma 9 Sudeste 0 -- -- 90
2020-11-09 02:00:00 9.6 0 Calma 8 Este 0 -- -- 89
2020-11-09 01:00:00 10.6 2 Nordeste 14 Nordeste 0 -- -- 76
2020-11-09 00:00:00 9.6 0 Calma 11 Nordeste 0 -- -- 83
2020-11-08 23:00:00 10.5 5 Este 22 Este 0 -- -- 76
2020-11-08 22:00:00 9.8 3 Sudeste 10 Sudeste 0 -- -- 92
2020-11-08 21:00:00 10.2 2 Nordeste 8 Nordeste 0.2 -- -- 94
2020-11-08 20:00:00 10.9 4 Este 9 Sudeste 0 -- -- 88
2020-11-08 19:00:00 11.7 3 Este 19 Este 0 -- -- 78
2020-11-08 18:00:00 13 3 Nordeste 30 Sudeste 0 -- -- 74
2020-11-08 17:00:00 14.4 6 Sudeste 30 Este 0 -- -- 63
2020-11-08 16:00:00 14.6 4 Este 33 Sudeste 0 -- -- 64
2020-11-08 15:00:00 14.5 9 Sudeste 26 Nordeste 0 -- -- 64
2020-11-08 14:00:00 15.5 9 Sudeste 33 Sur 0 -- -- 61
2020-11-08 13:00:00 13.7 10 Sudeste 29 Este 0.4 -- -- 74
2020-11-08 12:00:00 12.5 4 Sudeste 20 Este 0.4 -- -- 91
2020-11-08 11:00:00 12.8 2 Sudeste 13 Sur 0.2 -- -- 78
2020-11-08 10:00:00 12.5 5 Este 29 Sudeste 0 -- -- 80
2020-11-08 09:00:00 12.4 7 Sudeste 26 Norte 0 -- -- 76
2020-11-08 08:00:00 11.3 5 Nordeste 18 Este 0 -- -- 86
2020-11-08 07:00:00 10.4 4 Este 12 Sudeste 0.2 -- -- 96
2020-11-08 06:00:00 10.6 3 Este 9 Nordeste 0.4 -- -- 95
2020-11-08 05:00:00 12.3 4 Este 18 Este 0 -- -- 81
2020-11-08 04:00:00 13.3 3 Nordeste 18 Este 0 -- -- 75
2020-11-08 03:00:00 13.7 10 Sudeste 30 Sur 0 -- -- 69
2020-11-08 02:00:00 13.2 6 Sudeste 25 Sudeste 0 -- -- 69
2020-11-08 01:00:00 13.1 5 Este 31 Sudeste 0 -- -- 68
2020-11-08 00:00:00 13 9 Sudeste 27 Sur 0 -- -- 67
2020-11-07 23:00:00 12.4 7 Sudeste 28 Este 0 -- -- 72
2020-11-07 22:00:00 10 0 Calma 12 Sudeste 0 -- -- 86
2020-11-07 21:00:00 9.9 2 Sudeste 9 Sur 0 -- -- 89
2020-11-07 20:00:00 10.1 3 Sudeste 7 Sudeste 0 -- -- 88
2020-11-07 19:00:00 11.4 4 Sudeste 10 Sudeste 0 -- -- 81
2020-11-07 18:00:00 11.4 0 Calma 10 Sudeste 0 -- -- 85
2020-11-07 17:00:00 10.7 3 Sudeste 9 Sudeste 0 -- -- 87
2020-11-07 16:00:00 11.8 3 Sudeste 8 Sudeste 0 -- -- 81
2020-11-07 15:00:00 13.7 3 Sudeste 24 Este 0 -- -- 72
2020-11-07 14:00:00 16.4 8 Sudeste 18 Este 0 -- -- 55
2020-11-07 13:00:00 16 3 Este 20 Noroeste 0 -- -- 61
2020-11-07 12:00:00 17.1 4 Noroeste 9 Noroeste 0 -- -- 70
2020-11-07 11:00:00 13.6 5 Noroeste 12 Noroeste 0.2 -- -- 94
2020-11-07 10:00:00 10.9 4 Sudeste 8 Este 0 -- -- 99
2020-11-07 09:00:00 10.3 2 Este 10 Este 0.2 -- -- 99
2020-11-07 08:00:00 10.2 5 Este 9 Sudeste 0.2 -- -- 99
2020-11-07 07:00:00 10.2 0 Calma 8 Sur 0 -- -- 98
2020-11-07 06:00:00 10.8 0 Calma 18 Noroeste 1.8 -- -- 95
2020-11-07 05:00:00 12.9 9 Noroeste 31 Sudeste 0.2 -- -- 83
2020-11-07 04:00:00 12.6 9 Sudeste 24 Sur 0.4 -- -- 81
2020-11-07 03:00:00 11 4 Noroeste 17 Nordeste 0.6 -- -- 94
2020-11-07 02:00:00 13.3 6 Sudeste 23 Norte 0.2 -- -- 76
2020-11-07 01:00:00 12.8 7 Sudoeste 47 Sudeste 2 -- -- 76
2020-11-07 00:00:00 12.8 12 Sudeste 35 Sur 3.8 -- -- 76
2020-11-06 23:00:00 12.5 6 Sudeste 28 Sur 2.6 -- -- 83
2020-11-06 22:00:00 11.2 5 Este 23 Sudeste 9.2 -- -- 93
2020-11-06 21:00:00 12.8 2 Norte 15 Sur 2.4 -- -- 94
2020-11-06 20:00:00 14.4 7 Noroeste 19 Sudoeste 1.2 -- -- 85
2020-11-06 19:00:00 18.2 8 Sudeste 48 Sudeste 0 -- -- 57
2020-11-06 18:00:00 17.9 10 Sudeste 36 Sur 0 -- -- 58
2020-11-06 17:00:00 17.9 12 Sur 41 Sudeste 0 -- -- 56
2020-11-06 16:00:00 17.3 7 Sudeste 52 Sudeste 0 -- -- 62
2020-11-06 15:00:00 17.6 11 Sudeste 58 Sudeste 0 -- -- 56
2020-11-06 14:00:00 18.1 13 Sudeste 35 Sur 0 -- -- 52
2020-11-06 13:00:00 17.6 5 Sudeste 33 Sudeste 0 -- -- 55
2020-11-06 12:00:00 16.8 6 Sudeste 15 Sur 0 -- -- 58
2020-11-06 11:00:00 15.6 7 Este 31 Sur 0 -- -- 61
2020-11-06 10:00:00 15.2 8 Sudeste 31 Sur 0 -- -- 62
2020-11-06 09:00:00 14.4 9 Sudeste 39 Sudeste 0 -- -- 65
2020-11-06 08:00:00 13.7 10 Sudeste 39 Sur 0 -- -- 69
2020-11-06 07:00:00 11.1 5 Noroeste 17 Sur 0.4 -- -- 89
2020-11-06 06:00:00 12.5 2 Norte 28 Sur 1 -- -- 87
2020-11-06 05:00:00 12.7 4 Este 26 Noroeste 0 -- -- 76
2020-11-06 04:00:00 12.1 3 Sur 16 Sur 0 -- -- 81
2020-11-06 03:00:00 12.9 8 Sudeste 30 Sur 0 -- -- 75
2020-11-06 02:00:00 10.3 2 Norte 13 Este 0.2 -- -- 97
2020-11-06 01:00:00 10.4 3 Noroeste 11 Noroeste 0.8 -- -- 97
2020-11-06 00:00:00 12 3 Nordeste 42 Sur 0.8 -- -- 87
2020-11-05 23:00:00 14 12 Este 24 Este 0 -- -- 68
2020-11-05 22:00:00 10.7 6 Sudeste 17 Sudeste 0.2 -- -- 90
2020-11-05 21:00:00 9.1 5 Noroeste 14 Noroeste 0 -- -- 98
2020-11-05 20:00:00 8.3 3 Este 9 Sudeste 0 -- -- 98
2020-11-05 19:00:00 8.3 2 Norte 5 Noroeste 0 -- -- 98
2020-11-05 18:00:00 8.7 0 Calma 5 Sudeste 0.2 -- -- 94
2020-11-05 17:00:00 9.3 0 Calma 7 Noroeste 0 -- -- 87
2020-11-05 16:00:00 9.9 3 Norte 7 Norte 0 -- -- 83
2020-11-05 15:00:00 10.1 2 Norte 12 Norte 0 -- -- 83
2020-11-05 14:00:00 10 4 Norte 10 Noroeste 0 -- -- 81
2020-11-05 13:00:00 9.1 3 Noroeste 10 Noroeste 0 -- -- 82
2020-11-05 12:00:00 8 3 Norte 8 Noroeste 0 -- -- 84
2020-11-05 11:00:00 7.3 3 Noroeste 8 Oeste 0 -- -- 82
2020-11-05 10:00:00 4.3 0 Calma 4 Noroeste 0 -- -- 100
2020-11-05 09:00:00 2.9 3 Sudeste 9 Sudeste 0 -- -- 100
2020-11-05 08:00:00 2.4 2 Noroeste 4 Sudoeste 0 -- -- 100
2020-11-05 07:00:00 2.1 0 Calma 4 Noroeste 0 -- -- 100
2020-11-05 06:00:00 2.3 0 Calma 6 Sudeste 0 -- -- 100
2020-11-05 05:00:00 2.5 3 Sudeste 7 Sur 0 -- -- 100
2020-11-05 04:00:00 2.4 0 Calma 5 Sudeste 0 -- -- 100
2020-11-05 03:00:00 2.6 0 Calma 6 Este 0 -- -- 99
2020-11-05 02:00:00 3.2 0 Calma 4 Sur 0 -- -- 100
2020-11-05 01:00:00 3.3 0 Calma 5 Sudeste 0 -- -- 100
2020-11-05 00:00:00 3.1 2 Sudeste 4 Sudeste 0 -- -- 99
2020-11-04 23:00:00 3.6 0 Calma 4 Este 0 -- -- 98
2020-11-04 22:00:00 4.4 0 Calma 2 Noroeste 0 -- -- 98
2020-11-04 21:00:00 4.9 0 Calma 2 Sur 0 -- -- 96
2020-11-04 20:00:00 5.4 0 Calma 4 Nordeste 0 -- -- 97
2020-11-04 19:00:00 5.6 2 Sur 4 Sudeste 0 -- -- 96
2020-11-04 18:00:00 6.1 3 Norte 8 Norte 0 -- -- 94
2020-11-04 17:00:00 6.5 4 Norte 10 Norte 0 -- -- 93
2020-11-04 16:00:00 6.8 7 Norte 16 Noroeste 0.2 -- -- 91
2020-11-04 15:00:00 7.6 0 Calma 10 Noroeste 0 -- -- 85
2020-11-04 14:00:00 6.8 6 Noroeste 14 Noroeste 0 -- -- 89
2020-11-04 13:00:00 6.4 5 Noroeste 9 Noroeste 0.4 -- -- 91
2020-11-04 12:00:00 5.9 2 Noroeste 8 Norte 0 -- -- 90
2020-11-04 11:00:00 5.5 5 Noroeste 9 Noroeste 0 -- -- 93
2020-11-04 10:00:00 4.5 3 Noroeste 5 Noroeste 0 -- -- 98
2020-11-04 09:00:00 3.5 0 Calma 4 Noroeste 0 -- -- 100
2020-11-04 08:00:00 3.1 0 Calma 4 Norte 0.2 -- -- 100
2020-11-04 07:00:00 3 0 Calma 5 Noroeste 0 -- -- 100
2020-11-04 06:00:00 3.1 0 Calma 4 Sudeste 0 -- -- 100
2020-11-04 05:00:00 2.9 0 Calma 6 Noroeste 0 -- -- 100
2020-11-04 04:00:00 3.3 0 Calma 2 Nordeste 0 -- -- 100
2020-11-04 03:00:00 3.8 2 Norte 5 Noroeste 0 -- -- 100
2020-11-04 02:00:00 4.1 0 Calma 5 Sudeste 0 -- -- 100
2020-11-04 01:00:00 4.1 0 Calma 5 Sudeste 0 -- -- 100
2020-11-04 00:00:00 4.1 0 Calma 5 Sudeste 0 -- -- 100
2020-11-03 23:00:00 4 2 Sudeste 5 Este 0 -- -- 99
2020-11-03 22:00:00 4.6 2 Nordeste 6 Sudeste 0.4 -- -- 97
2020-11-03 21:00:00 5.1 0 Calma 5 Noroeste 0.4 -- -- 98
2020-11-03 20:00:00 5.3 0 Calma 3 Noroeste 0.2 -- -- 98
2020-11-03 19:00:00 5.7 2 Nordeste 10 Noroeste 0.4 -- -- 96
2020-11-03 18:00:00 6.4 3 Noroeste 7 Noroeste 0.4 -- -- 97
2020-11-03 17:00:00 6.7 2 Norte 10 Oeste 0 -- -- 95
2020-11-03 16:00:00 6.8 5 Noroeste 14 Noroeste 0.6 -- -- 95
2020-11-03 15:00:00 7.1 7 Norte 15 Noroeste 0.6 -- -- 97
2020-11-03 14:00:00 7.3 6 Norte 17 Noroeste 0.2 -- -- 95
2020-11-03 13:00:00 6.9 7 Norte 18 Noroeste 0.2 -- -- 98
2020-11-03 12:00:00 6.9 11 Norte 20 Norte 1 -- -- 99
2020-11-03 11:00:00 6.7 6 Noroeste 11 Noroeste 0.2 -- -- 100
2020-11-03 10:00:00 6.1 0 Calma 6 Noroeste 0.4 -- -- 99
2020-11-03 09:00:00 5.7 3 Noroeste 6 Noroeste 0 -- -- 100
2020-11-03 08:00:00 5.3 2 Noroeste 6 Sudeste 0 -- -- 99
2020-11-03 07:00:00 5.1 4 Sudeste 8 Sudeste 0 -- -- 99
2020-11-03 06:00:00 4.3 6 Sudeste 11 Sudeste 0 -- -- 98
2020-11-03 05:00:00 5.5 3 Sudeste 5 Sudeste 0.2 -- -- 95
2020-11-03 04:00:00 7.1 2 Sur 5 Noroeste 0 -- -- 98
2020-11-03 03:00:00 7.4 2 Norte 17 Norte 0 -- -- 99
2020-11-03 02:00:00 7.9 8 Norte 17 Norte 0.2 -- -- 100
2020-11-03 01:00:00 8.3 6 Norte 10 Norte 0.4 -- -- 100
2020-11-03 00:00:00 8.3 4 Norte 9 Noroeste 0.6 -- -- 100
2020-11-02 23:00:00 8.3 5 Norte 15 Norte 0.8 -- -- 99
2020-11-02 22:00:00 8.6 6 Norte 12 Norte 0 -- -- 99
2020-11-02 21:00:00 8.9 3 Nordeste 13 Norte 0.4 -- -- 99
2020-11-02 20:00:00 9.2 5 Norte 10 Noroeste 2.2 -- -- 99
2020-11-02 19:00:00 9.4 5 Norte 12 Norte 0.8 -- -- 98
2020-11-02 18:00:00 9.9 4 Norte 12 Noroeste 0.8 -- -- 98
2020-11-02 17:00:00 10.6 5 Noroeste 17 Norte 0.4 -- -- 96
2020-11-02 16:00:00 10.7 8 Norte 15 Norte 0.4 -- -- 97
2020-11-02 15:00:00 11.5 7 Norte 22 Noroeste 0.4 -- -- 94
2020-11-02 14:00:00 14.8 8 Noroeste 27 Norte 0 -- -- 82
2020-11-02 13:00:00 18.4 12 Noroeste 24 Noroeste 0 -- -- 68
2020-11-02 12:00:00 21.2 5 Sur 21 Sur 0 -- -- 55
2020-11-02 11:00:00 20.3 6 Sudeste 20 Sudeste 0 -- -- 57
2020-11-02 10:00:00 13.1 4 Sudeste 13 Sudeste 0 -- -- 81
2020-11-02 09:00:00 10.6 4 Sudeste 9 Sudeste 0 -- -- 89
2020-11-02 08:00:00 10.2 3 Sudeste 13 Sudeste 0 -- -- 90
2020-11-02 07:00:00 10.7 5 Sudeste 14 Sudeste 0 -- -- 87
2020-11-02 06:00:00 9.7 5 Sudeste 9 Sudeste 0 -- -- 93
2020-11-02 05:00:00 10 0 Calma 9 Noroeste 0 -- -- 91
2020-11-02 04:00:00 10.8 2 Sudeste 12 Sudeste 0 -- -- 88
2020-11-02 03:00:00 11.6 3 Sudeste 7 Norte 0 -- -- 86
2020-11-02 02:00:00 12.2 0 Calma 11 Sudeste 0 -- -- 84
2020-11-02 01:00:00 13.1 2 Sur 15 Este 0 -- -- 81
2020-11-02 00:00:00 13.4 2 Sudeste 11 Este 0 -- -- 83
2020-11-01 23:00:00 15.8 2 Norte 18 Sudeste 0 -- -- 73
2020-11-01 22:00:00 18.5 9 Sudeste 31 Sudeste 0 -- -- 62
2020-11-01 21:00:00 18.4 6 Este 26 Sudeste 0 -- -- 64
2020-11-01 20:00:00 16.5 9 Sudeste 21 Sudeste 0 -- -- 73
2020-11-01 19:00:00 16.1 3 Sudeste 8 Sudoeste 0 -- -- 77
2020-11-01 18:00:00 17.9 2 Norte 15 Sur 0 -- -- 71
2020-11-01 17:00:00 19.4 0 Calma 22 Sudeste 0 -- -- 68
2020-11-01 16:00:00 20.1 2 Sudeste 15 Sudeste 0 -- -- 65
2020-11-01 15:00:00 19.8 5 Sudeste 15 Este 0 -- -- 61
2020-11-01 14:00:00 19.4 4 Sudeste 18 Este 0 -- -- 62
2020-11-01 13:00:00 19 3 Sudeste 9 Sudeste 0 -- -- 69
2020-11-01 12:00:00 18.6 5 Sudeste 32 Sudeste 0 -- -- 64
2020-11-01 11:00:00 17.8 8 Sudeste 22 Este 0 -- -- 65
2020-11-01 10:00:00 17.6 7 Sudeste 19 Sudeste 0 -- -- 65
2020-11-01 09:00:00 17.6 6 Sudeste 25 Sudeste 0 -- -- 66
2020-11-01 08:00:00 17.4 7 Sur 20 Sur 0 -- -- 65
2020-11-01 07:00:00 16.5 2 Este 15 Sur 0 -- -- 72
2020-11-01 06:00:00 17.3 6 Sur 20 Sur 0 -- -- 67
2020-11-01 05:00:00 16.7 5 Sudeste 23 Sur 0 -- -- 70
2020-11-01 04:00:00 15.4 6 Sudeste 16 Sudeste 0 -- -- 74
2020-11-01 03:00:00 13 0 Calma 17 Sur 0 -- -- 86
2020-11-01 02:00:00 14.6 4 Sur 18 Sur 0 -- -- 77
2020-11-01 01:00:00 13.2 0 Calma 15 Sudoeste 0 -- -- 85
2020-11-01 00:00:00 13.5 2 Sur 12 Sudeste 0 -- -- 82
2020-10-31 23:00:00 12.5 0 Calma 6 Sudeste 0 -- -- 87
2020-10-31 22:00:00 13 0 Calma 6 Este 0 -- -- 84
2020-10-31 21:00:00 11.9 2 Sudeste 5 Sur 0 -- -- 87
2020-10-31 20:00:00 11 3 Sudeste 10 Sudeste 0 -- -- 85
2020-10-31 19:00:00 12.6 7 Sudeste 14 Sudeste 0 -- -- 78
2020-10-31 18:00:00 13.8 6 Sudeste 10 Sudeste 0 -- -- 78
2020-10-31 17:00:00 15.9 0 Calma 9 Sudeste 0 -- -- 72
2020-10-31 16:00:00 16.5 4 Sudeste 14 Este 0 -- -- 69
2020-10-31 15:00:00 19.9 5 Noroeste 13 Norte 0 -- -- 55
2020-10-31 14:00:00 22.6 2 Oeste 19 Noroeste 0 -- -- 53
2020-10-31 13:00:00 22 4 Sudeste 20 Sudeste 0 -- -- 47
2020-10-31 12:00:00 19.6 6 Sudeste 21 Sur 0 -- -- 46
2020-10-31 11:00:00 16.4 0 Calma 6 Este 0 -- -- 71
2020-10-31 10:00:00 12.9 3 Nordeste 17 Nordeste 0 -- -- 71
2020-10-31 09:00:00 10 5 Noroeste 16 Sudeste 0 -- -- 82
2020-10-31 08:00:00 10.4 2 Sudeste 13 Este 0 -- -- 81
2020-10-31 07:00:00 11.5 5 Este 19 Este 0 -- -- 76
2020-10-31 06:00:00 15 8 Sudeste 32 Sudeste 0 -- -- 63
2020-10-31 05:00:00 15.2 7 Sur 29 Sudeste 0 -- -- 60
2020-10-31 04:00:00 14.9 8 Sudeste 28 Sur 0 -- -- 64
2020-10-31 03:00:00 12.2 8 Sudeste 22 Sur 0 -- -- 76
2020-10-31 02:00:00 8 3 Norte 9 Sudeste 0 -- -- 93
2020-10-31 01:00:00 8 4 Sudeste 9 Sudeste 0 -- -- 93
2020-10-31 00:00:00 8.1 2 Sur 10 Sur 0 -- -- 92
2020-10-30 23:00:00 8.1 2 Sudeste 11 Sudeste 0 -- -- 89
2020-10-30 22:00:00 8.9 0 Calma 16 Noroeste 0 -- -- 86
2020-10-30 21:00:00 11.2 5 Oeste 20 Sur 0 -- -- 75
2020-10-30 20:00:00 7.9 3 Noroeste 8 Oeste 0 -- -- 92
2020-10-30 19:00:00 8.5 5 Sudeste 12 Sudeste 0 -- -- 91
2020-10-30 18:00:00 9.3 6 Sudeste 11 Sudeste 0 -- -- 87
2020-10-30 17:00:00 10.3 2 Sudeste 10 Sudeste 0 -- -- 84
2020-10-30 16:00:00 11.8 0 Calma 4 Sur 0 -- -- 78
2020-10-30 15:00:00 14.6 2 Sur 4 Sudoeste 0 -- -- 66
2020-10-30 14:00:00 19 2 Oeste 12 Noroeste 0 -- -- 46
2020-10-30 13:00:00 18.5 3 Noroeste 6 Oeste 0 -- -- 48
2020-10-30 12:00:00 15.3 2 Sudeste 9 Sur 0 -- -- 58
2020-10-30 11:00:00 10.9 3 Sudeste 10 Sudeste 0 -- -- 81
2020-10-30 10:00:00 4.8 6 Sudeste 10 Sudeste 0 -- -- 98
2020-10-30 09:00:00 3 5 Sudeste 11 Sudeste 0 -- -- 98
2020-10-30 08:00:00 2.6 4 Sudeste 12 Sudeste 0 -- -- 98
2020-10-30 07:00:00 2.5 2 Sudeste 8 Sudeste 0 -- -- 98
2020-10-30 06:00:00 3.5 3 Sudeste 11 Sudeste 0 -- -- 97
2020-10-30 05:00:00 3.8 6 Sudeste 12 Sudeste 0 -- -- 98
2020-10-30 04:00:00 3.9 6 Sudeste 10 Sudeste 0 -- -- 99
2020-10-30 03:00:00 3.6 3 Sudeste 9 Sudeste 0 -- -- 99
2020-10-30 02:00:00 4 3 Sudeste 9 Sudeste 0 -- -- 98
2020-10-30 01:00:00 5 4 Sudeste 12 Sudeste 0 -- -- 99
2020-10-30 00:00:00 5 6 Sudeste 10 Sudeste 0 -- -- 99
2020-10-29 23:00:00 5.6 3 Sudeste 10 Este 0 -- -- 98
2020-10-29 22:00:00 5.7 6 Sudeste 11 Sudeste 0 -- -- 98
2020-10-29 21:00:00 6.2 4 Sudeste 9 Sudeste 0 -- -- 96
2020-10-29 20:00:00 7.2 5 Sudeste 9 Sudeste 0 -- -- 96
2020-10-29 19:00:00 8.5 6 Sudeste 12 Sudeste 0 -- -- 94
2020-10-29 18:00:00 9.8 6 Sudeste 10 Sudeste 0 -- -- 91
2020-10-29 17:00:00 10.5 6 Sudeste 9 Sudeste 0 -- -- 91
2020-10-29 16:00:00 11.5 0 Calma 5 Sur 0 -- -- 87
2020-10-29 15:00:00 13.7 2 Sur 5 Oeste 0 -- -- 74
2020-10-29 14:00:00 16.9 2 Oeste 15 Noroeste 0 -- -- 62
2020-10-29 13:00:00 16.2 5 Noroeste 10 Noroeste 0 -- -- 62
2020-10-29 12:00:00 14.5 3 Noroeste 8 Sudeste 0 -- -- 65
2020-10-29 11:00:00 10.8 4 Sudeste 13 Sudeste 0 -- -- 82
2020-10-29 10:00:00 5.2 0 Calma 5 Sudeste 0 -- -- 100
2020-10-29 09:00:00 4.1 2 Sudeste 11 Sudeste 0 -- -- 100
2020-10-29 08:00:00 4.2 3 Sudeste 11 Sudeste 0 -- -- 100
2020-10-29 07:00:00 3.8 0 Calma 6 Sudeste 0 -- -- 100
2020-10-29 06:00:00 4.4 0 Calma 12 Sudeste 0 -- -- 99
2020-10-29 05:00:00 4.4 4 Sudeste 10 Sudeste 0 -- -- 99
2020-10-29 04:00:00 4.6 0 Calma 9 Sudeste 0 -- -- 99
2020-10-29 03:00:00 5.1 4 Sudeste 9 Sudeste 0 -- -- 99
2020-10-29 02:00:00 5.2 5 Sudeste 8 Sudeste 0 -- -- 99
2020-10-29 01:00:00 5.8 3 Sudeste 8 Sudeste 0 -- -- 98
2020-10-29 00:00:00 6.6 3 Sudeste 9 Sudeste 0 -- -- 96
2020-10-28 23:00:00 7.7 5 Sudeste 8 Sudeste 0 -- -- 94
2020-10-28 22:00:00 9.7 4 Sudeste 9 Sudeste 0 -- -- 95
2020-10-28 21:00:00 9.2 3 Sudeste 7 Sur 0 -- -- 95
2020-10-28 20:00:00 9.9 0 Calma 5 Sudeste 0 -- -- 89
2020-10-28 19:00:00 12 0 Calma 2 Sur 0 -- -- 88
2020-10-28 18:00:00 13 0 Calma 9 Norte 0 -- -- 84
2020-10-28 17:00:00 13.6 4 Norte 14 Norte 0 -- -- 79
2020-10-28 16:00:00 13.9 2 Noroeste 12 Noroeste 0 -- -- 81
2020-10-28 15:00:00 14.8 8 Noroeste 18 Noroeste 0 -- -- 72
2020-10-28 14:00:00 16.2 9 Noroeste 22 Noroeste 0 -- -- 70
2020-10-28 13:00:00 16.1 10 Noroeste 15 Noroeste 0 -- -- 68
2020-10-28 12:00:00 15.1 5 Noroeste 11 Noroeste 0 -- -- 69
2020-10-28 11:00:00 13.5 4 Sudeste 8 Sudeste 0 -- -- 76
2020-10-28 10:00:00 8.8 6 Sudeste 9 Sudeste 0 -- -- 93
2020-10-28 09:00:00 8.2 3 Sudeste 9 Este 0 -- -- 94
2020-10-28 08:00:00 9.1 3 Este 9 Sudeste 0 -- -- 94
2020-10-28 07:00:00 8.5 3 Sudeste 10 Sudeste 0 -- -- 97
2020-10-28 06:00:00 8 4 Sudeste 8 Sudeste 0 -- -- 99
2020-10-28 05:00:00 7.9 0 Calma 6 Sudeste 0 -- -- 97
2020-10-28 04:00:00 9.5 0 Calma 6 Nordeste 0 -- -- 94
2020-10-28 03:00:00 10 0 Calma 9 Nordeste 0 -- -- 98
2020-10-28 02:00:00 9.4 6 Norte 15 Norte 0 -- -- 99
2020-10-28 01:00:00 9 4 Sudeste 12 Sudeste 0 -- -- 91
2020-10-28 00:00:00 10.5 6 Sudeste 13 Este 0 -- -- 86